Time;durP1;ratioP1;P1;durP2;ratioP2;P2;SDS_P1;SDS_P2;PMS_P1;PMS_P2;Temp;Humidity;BMP_temperature;BMP_pressure;BME280_temperature;BME280_humidity;BME280_pressure;Samples;Min_cycle;Max_cycle;Signal;HPM_P1;HPM_P2
2022/09/03 00:00:55;;;;;;;8.43;4.07;;;;;;;18.28;100.00;101456.38;2088346;28;20522;-68
2022/09/03 00:02:05;;;;;;;10.33;4.00;;;;;;;18.96;100.00;101567.38;2087882;28;20460;-68
2022/09/03 00:03:16;;;;;;;6.57;4.00;;;;;;;18.80;100.00;101548.00;2088509;28;20465;-68
2022/09/03 00:04:45;;;;;;;5.77;3.80;;;;;;;18.85;100.00;101553.00;2086405;28;20459;-68
2022/09/03 00:05:47;;;;;;;9.63;4.00;;;;;;;18.95;100.00;101571.44;2087510;28;20445;-68
2022/09/03 00:06:54;;;;;;;7.20;3.83;;;;;;;18.96;100.00;101573.00;2087658;28;20441;-68
2022/09/03 00:08:20;;;;;;;7.00;3.70;;;;;;;19.00;100.00;101579.25;2087889;28;20831;-68
2022/09/03 00:09:20;;;;;;;7.37;4.13;;;;;;;19.07;100.00;101573.31;2087005;28;21132;-68
2022/09/03 00:10:28;;;;;;;5.60;4.07;;;;;;;19.10;100.00;101569.56;2087064;28;20826;-68
2022/09/03 00:11:45;;;;;;;4.83;3.80;;;;;;;18.96;100.00;101556.13;2088432;28;20219;-67
2022/09/03 00:12:47;;;;;;;7.10;4.03;;;;;;;19.15;100.00;101575.34;2088567;28;20951;-67
2022/09/03 00:14:03;;;;;;;9.43;4.00;;;;;;;19.19;100.00;101583.63;2088273;28;20447;-68
2022/09/03 00:15:08;;;;;;;7.67;3.90;;;;;;;19.18;100.00;101576.44;2087858;28;20445;-67
2022/09/03 00:16:11;;;;;;;6.53;3.97;;;;;;;19.16;100.00;101585.34;2087849;28;20548;-68
2022/09/03 00:17:29;;;;;;;6.67;3.97;;;;;;;18.66;100.00;101521.31;2087298;28;20951;-67
2022/09/03 00:18:32;;;;;;;6.30;4.13;;;;;;;19.14;100.00;101567.38;2087434;28;20431;-68
2022/09/03 00:19:39;;;;;;;9.17;4.10;;;;;;;18.51;100.00;101477.47;2087208;28;20474;-68
2022/09/03 00:20:50;;;;;;;7.47;4.40;;;;;;;18.17;100.00;101427.22;2087519;28;20438;-68
2022/09/03 00:22:20;;;;;;;7.33;3.60;;;;;;;19.15;100.00;101568.94;2087902;28;20533;-68
2022/09/03 00:23:25;;;;;;;7.43;3.70;;;;;;;19.12;100.00;101567.84;2087736;28;20439;-68
2022/09/03 00:24:32;;;;;;;6.13;3.77;;;;;;;19.11;100.00;101574.72;2087452;28;20434;-68
2022/09/03 00:25:46;;;;;;;5.30;3.80;;;;;;;19.12;100.00;101570.66;2088179;28;20438;-68
2022/09/03 00:26:53;;;;;;;5.90;3.80;;;;;;;19.03;100.00;101572.69;2086534;28;20433;-67
2022/09/03 00:27:57;;;;;;;6.93;4.10;;;;;;;19.00;100.00;101560.38;2088033;28;20789;-68
2022/09/03 00:30:44;;;;;;;8.63;4.20;;;;;;;18.52;100.00;101485.44;2088316;28;20422;-68
2022/09/03 00:31:50;;;;;;;8.13;4.00;;;;;;;19.11;100.00;101571.91;2087317;28;20422;-68
2022/09/03 00:33:01;;;;;;;5.93;4.17;;;;;;;19.14;100.00;101575.81;2088496;28;20407;-68
2022/09/03 00:34:12;;;;;;;8.10;4.70;;;;;;;19.14;100.00;101570.97;2088149;28;20432;-68
2022/09/03 00:35:24;;;;;;;10.00;4.47;;;;;;;19.12;100.00;101581.09;2087425;28;20421;-68
2022/09/03 00:36:41;;;;;;;6.50;4.23;;;;;;;19.07;100.00;101576.09;2088202;28;20433;-68
2022/09/03 00:37:42;;;;;;;11.40;4.63;;;;;;;19.09;100.00;101579.25;2087110;28;20441;-68
2022/09/03 00:38:43;;;;;;;4.77;3.73;;;;;;;19.11;100.00;101585.16;2087403;28;20419;-68
2022/09/03 00:39:44;;;;;;;6.23;4.37;;;;;;;19.05;100.00;101573.00;2088132;28;20449;-68
2022/09/03 00:41:19;;;;;;;8.10;4.30;;;;;;;19.11;100.00;101573.94;2087557;28;20502;-68
2022/09/03 00:42:48;;;;;;;7.43;4.47;;;;;;;19.05;100.00;101562.56;2087232;28;20685;-68
2022/09/03 00:44:07;;;;;;;4.63;3.77;;;;;;;19.07;100.00;101574.09;2084142;28;20450;-67
2022/09/03 00:45:14;;;;;;;6.10;4.10;;;;;;;19.03;100.00;101575.50;2086681;28;20454;-68
2022/09/03 00:46:41;;;;;;;7.33;4.17;;;;;;;18.99;100.00;101575.63;2087410;28;20476;-68
2022/09/03 00:47:59;;;;;;;8.20;3.80;;;;;;;18.95;100.00;101572.22;2086541;28;20465;-68
2022/09/03 00:49:20;;;;;;;5.93;3.97;;;;;;;18.94;100.00;101581.88;2087148;28;20435;-68
2022/09/03 00:50:42;;;;;;;7.80;4.20;;;;;;;18.98;100.00;101578.94;2088269;28;20509;-68
2022/09/03 00:51:54;;;;;;;10.40;4.57;;;;;;;18.98;100.00;101579.69;2088021;28;20472;-68
2022/09/03 00:53:14;;;;;;;7.03;4.13;;;;;;;18.99;100.00;101586.88;2087840;28;20816;-68
2022/09/03 00:54:53;;;;;;;8.57;4.00;;;;;;;18.97;100.00;101571.75;2087676;28;20417;-67
2022/09/03 00:56:15;;;;;;;9.70;4.43;;;;;;;19.05;100.00;101584.25;2086833;28;20425;-68
2022/09/03 00:57:29;;;;;;;6.23;4.13;;;;;;;18.89;100.00;101564.88;2087952;28;20433;-68
2022/09/03 00:58:32;;;;;;;5.47;4.00;;;;;;;19.00;100.00;101573.63;2088536;28;20501;-68
2022/09/03 00:59:40;;;;;;;4.90;3.40;;;;;;;19.03;100.00;101572.69;2088112;28;20438;-68
2022/09/03 01:00:45;;;;;;;6.80;4.07;;;;;;;18.52;100.00;101484.66;2087643;28;20429;-68
2022/09/03 01:02:22;;;;;;;6.27;4.20;;;;;;;19.07;100.00;101574.09;2087366;28;20970;-67
2022/09/03 01:03:33;;;;;;;9.27;4.20;;;;;;;19.07;100.00;101567.69;2086829;28;20810;-68
2022/09/03 01:04:33;;;;;;;6.10;4.00;;;;;;;19.10;100.00;101575.97;2087356;28;20419;-68
2022/09/03 01:06:14;;;;;;;6.17;4.10;;;;;;;19.10;100.00;101575.19;2087463;28;21297;-68
2022/09/03 01:07:45;;;;;;;5.53;4.27;;;;;;;19.13;100.00;101577.06;2087715;28;20293;-68
2022/09/03 01:09:11;;;;;;;11.40;4.17;;;;;;;19.13;100.00;101579.88;2084990;28;21048;-68
2022/09/03 01:10:32;;;;;;;5.20;3.93;;;;;;;17.49;100.00;101332.34;2087901;28;20973;-68
2022/09/03 01:11:48;;;;;;;5.30;4.10;;;;;;;19.12;100.00;101578.31;2087365;28;20874;-68
2022/09/03 01:13:10;;;;;;;6.30;3.87;;;;;;;19.02;100.00;101583.16;2087324;28;21077;-68
2022/09/03 01:14:32;;;;;;;11.27;4.30;;;;;;;19.07;100.00;101582.53;2087678;28;20883;-68
2022/09/03 01:15:36;;;;;;;9.27;4.37;;;;;;;19.08;100.00;101572.06;2087306;28;20434;-68
2022/09/03 01:16:52;;;;;;;10.13;4.30;;;;;;;19.07;100.00;101581.72;2087018;28;20947;-68
2022/09/03 01:18:02;;;;;;;10.17;4.60;;;;;;;19.06;100.00;101580.97;2087623;28;20919;-68
2022/09/03 01:19:27;;;;;;;7.13;4.30;;;;;;;19.05;100.00;101587.03;2088270;28;20503;-68
2022/09/03 01:20:44;;;;;;;8.17;4.37;;;;;;;19.02;100.00;101594.38;2088404;28;20493;-68
2022/09/03 01:22:06;;;;;;;7.73;4.67;;;;;;;19.01;100.00;101592.03;2086460;28;20461;-68
2022/09/03 01:23:09;;;;;;;7.40;4.60;;;;;;;19.00;100.00;101596.09;2087073;28;20445;-68
2022/09/03 01:24:37;;;;;;;6.60;4.33;;;;;;;19.00;100.00;101587.66;2087025;28;20427;-68
2022/09/03 01:26:03;;;;;;;9.00;4.40;;;;;;;18.90;100.00;101595.31;2087512;28;20852;-68
2022/09/03 01:27:45;;;;;;;11.67;4.53;;;;;;;18.87;100.00;101587.81;2086867;28;20897;-68
2022/09/03 01:29:01;;;;;;;8.13;4.63;;;;;;;18.87;100.00;101596.22;2078377;28;20975;-68
2022/09/03 01:30:17;;;;;;;6.43;4.27;;;;;;;18.38;100.00;101533.75;2086217;28;20883;-68
2022/09/03 01:31:35;;;;;;;7.60;4.67;;;;;;;18.72;100.00;101591.69;2087818;28;20803;-68
2022/09/03 01:32:53;;;;;;;7.67;5.10;;;;;;;18.72;100.00;101595.28;2087962;28;20463;-68
2022/09/03 01:34:26;;;;;;;10.37;4.90;;;;;;;18.87;100.00;101610.28;2087923;28;20434;-68
2022/09/03 01:35:33;;;;;;;9.10;4.80;;;;;;;18.88;100.00;101611.06;2080816;28;20434;-68
2022/09/03 01:37:12;;;;;;;7.27;4.53;;;;;;;18.91;100.00;101605.28;2087081;28;20427;-68
2022/09/03 01:38:30;;;;;;;6.67;4.90;;;;;;;18.83;100.00;101601.22;2086823;28;20533;-68
2022/09/03 01:39:57;;;;;;;8.20;4.63;;;;;;;18.55;100.00;101579.16;2087809;28;20451;-68
2022/09/03 01:42:12;;;;;;;9.13;4.70;;;;;;;18.76;100.00;101607.13;2087519;28;20442;-68
2022/09/03 01:42:37;;;;;;;7.67;4.40;;;;;;;18.38;100.00;101538.59;2087371;28;20399;-68
2022/09/03 01:43:46;;;;;;;6.90;4.50;;;;;;;18.85;100.00;101604.34;2086599;28;20413;-68
2022/09/03 01:44:52;;;;;;;8.77;4.60;;;;;;;18.88;100.00;101602.66;2086467;28;20490;-68
2022/09/03 01:46:06;;;;;;;7.47;4.40;;;;;;;18.65;100.00;101567.50;2087420;28;21001;-68
2022/09/03 01:47:50;;;;;;;8.07;4.80;;;;;;;18.91;100.00;101602.50;2086963;28;20415;-68
2022/09/03 01:48:55;;;;;;;6.73;4.20;;;;;;;18.93;100.00;101605.59;2087888;28;20968;-68
2022/09/03 01:50:10;;;;;;;15.70;5.00;;;;;;;18.97;100.00;101597.00;2087702;28;20478;-68
2022/09/03 01:51:21;;;;;;;7.20;4.60;;;;;;;18.99;100.00;101600.16;2087874;28;20441;-68
2022/09/03 01:52:59;;;;;;;7.67;4.30;;;;;;;19.01;100.00;101597.66;2086979;28;21094;-68
2022/09/03 01:54:14;;;;;;;6.70;4.40;;;;;;;18.99;100.00;101600.16;2087044;28;20403;-68
2022/09/03 01:55:24;;;;;;;10.03;4.17;;;;;;;18.95;100.00;101591.88;2086919;28;20433;-68
2022/09/03 01:57:09;;;;;;;7.10;4.80;;;;;;;18.96;100.00;101604.69;2086974;28;20479;-68
2022/09/03 01:58:32;;;;;;;6.70;4.53;;;;;;;18.91;100.00;101599.69;2081571;28;20451;-68
2022/09/03 01:59:52;;;;;;;6.37;4.47;;;;;;;18.90;100.00;101608.56;2089250;28;20999;-68
2022/09/03 02:01:04;;;;;;;5.63;4.43;;;;;;;18.83;100.00;101606.06;2089339;28;20935;-68
2022/09/03 02:02:11;;;;;;;10.30;4.93;;;;;;;18.79;100.00;101594.19;2089177;28;20415;-68
2022/09/03 02:03:13;;;;;;;8.33;4.70;;;;;;;18.76;100.00;101595.91;2089165;28;20419;-68
2022/09/03 02:04:22;;;;;;;4.87;4.23;;;;;;;18.66;100.00;101599.94;2088735;28;20418;-68
2022/09/03 02:05:25;;;;;;;10.83;4.60;;;;;;;18.60;100.00;101596.19;2088158;28;20449;-68
2022/09/03 02:06:30;;;;;;;8.20;5.13;;;;;;;18.65;100.00;101598.38;2088896;28;20472;-68
2022/09/03 02:07:34;;;;;;;9.73;5.00;;;;;;;18.68;100.00;101600.25;2088323;28;20455;-68
2022/09/03 02:08:35;;;;;;;7.83;4.63;;;;;;;18.64;100.00;101591.22;2089567;28;20439;-68
2022/09/03 02:09:35;;;;;;;8.93;5.10;;;;;;;18.71;100.00;101607.75;2089116;28;20982;-68
2022/09/03 02:10:39;;;;;;;6.23;4.60;;;;;;;18.64;100.00;101601.66;2089015;28;20283;-68
2022/09/03 02:11:40;;;;;;;6.50;4.70;;;;;;;18.59;100.00;101602.25;2088964;28;20190;-68
2022/09/03 02:12:46;;;;;;;7.00;5.43;;;;;;;18.57;100.00;101587.91;2089226;28;20457;-67
2022/09/03 02:13:51;;;;;;;7.77;5.20;;;;;;;18.64;100.00;101605.25;2089338;28;20556;-67
2022/09/03 02:14:52;;;;;;;8.80;5.07;;;;;;;18.54;100.00;101583.22;2088805;28;20475;-68
2022/09/03 02:15:57;;;;;;;9.43;4.87;;;;;;;18.65;100.00;101606.81;2088885;28;20456;-68
2022/09/03 02:17:00;;;;;;;9.57;5.20;;;;;;;17.96;100.00;101492.63;2087811;28;20176;-68
2022/09/03 02:18:05;;;;;;;10.17;5.20;;;;;;;18.72;100.00;101611.34;2088968;28;20474;-68
2022/09/03 02:19:12;;;;;;;7.17;5.20;;;;;;;18.72;100.00;101611.34;2089634;28;20429;-68
2022/09/03 02:20:19;;;;;;;6.57;5.07;;;;;;;18.76;100.00;101615.56;2089405;28;20414;-68
2022/09/03 02:21:21;;;;;;;8.33;5.30;;;;;;;18.77;100.00;101614.31;2089317;28;21094;-68
2022/09/03 02:22:22;;;;;;;7.17;5.00;;;;;;;18.72;100.00;101592.47;2088691;28;20439;-67
2022/09/03 02:23:23;;;;;;;8.30;5.00;;;;;;;18.70;100.00;101580.94;2089166;28;20580;-68
2022/09/03 02:24:25;;;;;;;7.20;5.27;;;;;;;18.90;100.00;101606.56;2088781;28;20207;-68
2022/09/03 02:25:35;;;;;;;9.03;5.30;;;;;;;18.35;100.00;101514.25;2088176;28;20449;-68
2022/09/03 02:26:35;;;;;;;7.37;4.70;;;;;;;18.96;100.00;101601.09;2088246;28;20444;-68
2022/09/03 02:27:37;;;;;;;9.70;4.93;;;;;;;18.89;100.00;101602.16;2088139;28;20516;-67
2022/09/03 02:28:38;;;;;;;7.63;5.07;;;;;;;18.88;100.00;101592.19;2089096;28;20546;-68
2022/09/03 02:29:38;;;;;;;9.77;5.30;;;;;;;18.94;100.00;101589.53;2088890;28;20439;-68
2022/09/03 02:30:39;;;;;;;8.43;4.77;;;;;;;18.95;100.00;101588.28;2088967;28;20188;-68
2022/09/03 02:31:40;;;;;;;8.17;5.30;;;;;;;18.88;100.00;101571.75;2089414;28;20179;-68
2022/09/03 02:32:40;;;;;;;7.77;4.87;;;;;;;18.97;100.00;101578.16;2089216;28;20222;-68
2022/09/03 02:33:45;;;;;;;7.93;5.27;;;;;;;19.00;100.00;101590.47;2089290;28;20675;-68
2022/09/03 02:34:45;;;;;;;7.97;5.20;;;;;;;19.02;100.00;101585.97;2088180;28;20627;-68
2022/09/03 02:35:46;;;;;;;5.70;5.10;;;;;;;19.06;100.00;101589.41;2088100;28;20442;-68
2022/09/03 02:36:47;;;;;;;9.33;5.27;;;;;;;18.97;100.00;101592.19;2088396;28;20238;-68
2022/09/03 02:37:47;;;;;;;6.10;5.00;;;;;;;18.99;100.00;101592.50;2088309;28;20180;-68
2022/09/03 02:38:48;;;;;;;7.93;5.33;;;;;;;18.95;100.00;101591.88;2089110;28;20188;-68
2022/09/03 02:39:50;;;;;;;7.87;5.40;;;;;;;18.96;100.00;101599.06;2089486;28;20179;-68
2022/09/03 02:40:53;;;;;;;9.73;5.97;;;;;;;18.93;100.00;101597.19;2089306;28;20313;-68
2022/09/03 02:42:01;;;;;;;6.77;5.33;;;;;;;18.98;100.00;101590.94;2088747;28;20431;-68
2022/09/03 02:43:04;;;;;;;9.90;5.13;;;;;;;19.04;100.00;101605.91;2089093;28;20442;-68
2022/09/03 02:44:11;;;;;;;8.23;4.83;;;;;;;19.02;100.00;101599.22;2089183;28;20485;-68
2022/09/03 02:45:28;;;;;;;8.03;4.97;;;;;;;19.01;100.00;101606.88;2088038;28;20440;-67
2022/09/03 02:46:45;;;;;;;5.83;4.43;;;;;;;19.02;100.00;101607.63;2088120;28;20499;-67
2022/09/03 02:47:49;;;;;;;6.63;4.53;;;;;;;18.95;100.00;101594.69;2088472;28;20470;-68
2022/09/03 02:48:49;;;;;;;8.07;4.80;;;;;;;19.01;100.00;101604.06;2088630;28;20453;-67
2022/09/03 02:49:49;;;;;;;7.13;5.07;;;;;;;18.30;100.00;101493.16;2088413;28;20506;-68
2022/09/03 02:50:50;;;;;;;8.30;4.80;;;;;;;19.06;100.00;101597.81;2088966;28;20633;-68
2022/09/03 02:51:51;;;;;;;11.53;4.67;;;;;;;18.92;100.00;101600.44;2088667;28;20188;-68
2022/09/03 02:52:52;;;;;;;6.97;4.87;;;;;;;18.89;100.00;101602.16;2088932;28;20487;-68
2022/09/03 02:53:52;;;;;;;7.60;4.87;;;;;;;18.92;100.00;101618.09;2088895;28;20632;-68
2022/09/03 02:54:52;;;;;;;8.73;5.33;;;;;;;18.93;100.00;101613.25;2088336;28;20676;-68
2022/09/03 02:55:58;;;;;;;7.50;5.13;;;;;;;18.90;100.00;101603.75;2089109;28;20191;-67
2022/09/03 02:56:59;;;;;;;8.90;5.00;;;;;;;19.05;100.00;101621.56;2088674;28;20221;-67
2022/09/03 02:58:00;;;;;;;8.07;4.63;;;;;;;19.04;100.00;101617.16;2088560;28;20992;-68
2022/09/03 02:59:03;;;;;;;7.07;4.37;;;;;;;19.09;100.00;101618.59;2089028;28;20183;-68
2022/09/03 03:00:04;;;;;;;7.40;4.47;;;;;;;19.09;100.00;101615.78;2088696;28;20195;-68
2022/09/03 03:01:05;;;;;;;5.70;4.37;;;;;;;19.11;100.00;101605.63;2088943;28;20477;-68
2022/09/03 03:02:06;;;;;;;6.57;4.13;;;;;;;19.16;100.00;101610.63;2088861;28;20870;-68
2022/09/03 03:03:06;;;;;;;8.67;4.90;;;;;;;18.79;100.00;101555.66;2087689;28;20196;-68
2022/09/03 03:04:07;;;;;;;6.60;4.53;;;;;;;19.06;100.00;101602.66;2087512;28;20458;-68
2022/09/03 03:05:15;;;;;;;7.67;4.63;;;;;;;19.12;100.00;101610.00;2088169;28;20191;-67
2022/09/03 03:06:19;;;;;;;7.97;4.70;;;;;;;19.15;100.00;101611.09;2088397;28;20642;-68
2022/09/03 03:07:19;;;;;;;11.53;5.03;;;;;;;19.15;100.00;101605.47;2088824;28;20470;-68
2022/09/03 03:08:23;;;;;;;5.83;4.50;;;;;;;18.72;100.00;101535.53;2087898;28;20431;-68
2022/09/03 03:09:24;;;;;;;5.83;4.37;;;;;;;19.19;100.00;101609.69;2088724;28;20211;-68
2022/09/03 03:10:24;;;;;;;9.27;4.80;;;;;;;19.19;100.00;101604.06;2088511;28;20446;-68
2022/09/03 03:11:26;;;;;;;6.33;5.00;;;;;;;19.20;100.00;101594.41;2088843;28;20653;-68
2022/09/03 03:12:26;;;;;;;6.13;4.50;;;;;;;18.47;100.00;101482.47;2088872;28;20191;-68
2022/09/03 03:13:30;;;;;;;7.80;4.60;;;;;;;19.22;100.00;101591.13;2088328;28;20996;-68
2022/09/03 03:14:31;;;;;;;5.83;4.90;;;;;;;19.22;100.00;101591.13;2088292;28;20176;-67
2022/09/03 03:15:31;;;;;;;6.47;4.40;;;;;;;18.92;100.00;101563.94;2088391;28;20427;-67
2022/09/03 03:16:32;;;;;;;7.63;4.80;;;;;;;18.85;100.00;101575.47;2088640;28;20187;-68
2022/09/03 03:17:32;;;;;;;6.53;5.40;;;;;;;18.79;100.00;101574.53;2087774;28;20187;-67
2022/09/03 03:18:33;;;;;;;7.43;4.67;;;;;;;18.56;100.00;101545.03;2088355;28;20271;-68
2022/09/03 03:19:34;;;;;;;8.03;4.87;;;;;;;18.73;100.00;101588.41;2088845;28;20731;-68
2022/09/03 03:20:35;;;;;;;7.33;5.00;;;;;;;18.66;100.00;101587.91;2088593;28;20521;-67
2022/09/03 03:21:35;;;;;;;5.70;5.10;;;;;;;18.63;100.00;101586.06;2088652;28;20474;-68
2022/09/03 03:22:36;;;;;;;7.57;5.37;;;;;;;18.54;100.00;101591.66;2088767;28;20262;-67
2022/09/03 03:23:38;;;;;;;8.00;5.33;;;;;;;18.51;100.00;101598.97;2088527;28;20269;-67
2022/09/03 03:24:38;;;;;;;8.30;5.27;;;;;;;18.42;100.00;101598.16;2088593;28;20197;-68
2022/09/03 03:25:39;;;;;;;5.90;5.30;;;;;;;18.34;100.00;101594.88;2087356;28;21029;-67
2022/09/03 03:26:40;;;;;;;11.10;5.77;;;;;;;17.94;100.00;101544.31;2087113;28;20196;-67
2022/09/03 03:27:41;;;;;;;8.03;5.00;;;;;;;17.11;100.00;101423.03;2087907;28;20217;-67
2022/09/03 03:28:41;;;;;;;8.87;5.47;;;;;;;18.21;100.00;101596.94;2088569;28;20285;-67
2022/09/03 03:29:42;;;;;;;10.27;5.40;;;;;;;18.17;100.00;101595.53;2087971;28;20195;-67
2022/09/03 03:30:46;;;;;;;8.90;5.53;;;;;;;18.11;100.00;101603.75;2088819;28;20193;-67
2022/09/03 03:31:46;;;;;;;8.73;5.53;;;;;;;18.02;100.00;101607.31;2088142;28;20182;-67
2022/09/03 03:32:47;;;;;;;8.47;5.80;;;;;;;18.04;100.00;101610.44;2088645;28;20427;-67
2022/09/03 03:33:59;;;;;;;7.10;5.23;;;;;;;17.97;100.00;101607.13;2088926;28;20268;-67
2022/09/03 03:35:00;;;;;;;9.40;5.13;;;;;;;17.90;100.00;101598.97;2088059;28;20178;-67
2022/09/03 03:36:12;;;;;;;7.30;4.87;;;;;;;17.87;100.00;101611.13;2088326;28;20442;-67
2022/09/03 03:37:13;;;;;;;6.50;5.07;;;;;;;17.81;100.00;101614.97;2088570;28;20176;-67
2022/09/03 03:38:13;;;;;;;9.83;5.67;;;;;;;17.72;100.00;101612.13;2088381;28;20445;-67
2022/09/03 03:39:14;;;;;;;6.57;5.13;;;;;;;17.68;100.00;101620.66;2088686;28;20187;-67
2022/09/03 03:40:14;;;;;;;8.50;5.80;;;;;;;17.65;100.00;101610.34;2088567;28;20720;-67
2022/09/03 03:41:21;;;;;;;8.17;5.63;;;;;;;17.60;100.00;101610.19;2088450;28;20188;-67
2022/09/03 03:42:21;;;;;;;9.77;5.80;;;;;;;17.67;100.00;101619.88;2088699;28;20195;-67
2022/09/03 03:43:22;;;;;;;6.33;5.20;;;;;;;17.66;100.00;101617.50;2088129;28;20429;-67
2022/09/03 03:44:22;;;;;;;8.73;5.60;;;;;;;17.02;100.00;101517.41;2087810;28;20225;-67
2022/09/03 03:45:23;;;;;;;9.80;5.87;;;;;;;17.62;100.00;101621.69;2087691;28;20210;-67
2022/09/03 03:46:24;;;;;;;8.90;5.00;;;;;;;17.53;100.00;101617.59;2088195;28;20463;-67
2022/09/03 03:47:25;;;;;;;5.70;4.90;;;;;;;17.65;100.00;101621.56;2088173;28;20680;-67
2022/09/03 03:48:25;;;;;;;8.43;5.90;;;;;;;17.70;100.00;101625.81;2088401;28;20901;-67
2022/09/03 03:49:26;;;;;;;8.93;6.07;;;;;;;17.70;100.00;101625.81;2088415;28;20284;-67
2022/09/03 03:50:26;;;;;;;6.83;5.17;;;;;;;17.75;100.00;101628.03;2088355;28;20253;-67
2022/09/03 03:51:28;;;;;;;7.23;5.40;;;;;;;17.13;100.00;101526.22;2087888;28;20191;-67
2022/09/03 03:52:29;;;;;;;9.87;5.40;;;;;;;17.75;100.00;101622.44;2088504;28;20274;-68
2022/09/03 03:53:30;;;;;;;9.70;5.43;;;;;;;17.81;100.00;101626.97;2088052;28;20423;-67
2022/09/03 03:54:30;;;;;;;6.77;5.07;;;;;;;17.82;100.00;101625.75;2088621;28;20180;-67
2022/09/03 03:55:31;;;;;;;7.10;5.63;;;;;;;17.82;100.00;101628.56;2088217;28;20536;-68
2022/09/03 03:56:32;;;;;;;10.43;5.53;;;;;;;17.91;100.00;101625.00;2087822;28;20191;-67
2022/09/03 03:57:33;;;;;;;7.87;5.43;;;;;;;18.00;100.00;101620.22;2087539;28;20207;-67
2022/09/03 03:58:34;;;;;;;8.47;5.27;;;;;;;18.07;100.00;101616.38;2087516;28;20438;-68
2022/09/03 03:59:35;;;;;;;8.50;5.60;;;;;;;18.02;100.00;101611.34;2088400;28;20259;-67
2022/09/03 04:00:37;;;;;;;5.87;4.93;;;;;;;18.09;100.00;101621.03;2088324;28;20426;-68
2022/09/03 04:01:37;;;;;;;8.57;5.17;;;;;;;18.12;100.00;101621.38;2088323;28;20181;-67
2022/09/03 04:02:38;;;;;;;7.43;5.50;;;;;;;17.95;100.00;101609.59;2088862;28;20994;-68
2022/09/03 04:03:39;;;;;;;9.10;5.53;;;;;;;18.28;100.00;101636.72;2088747;28;20183;-67
2022/09/03 04:04:39;;;;;;;8.27;4.97;;;;;;;18.10;100.00;101596.59;2087635;28;20646;-68
2022/09/03 04:05:40;;;;;;;5.93;4.87;;;;;;;18.46;100.00;101629.66;2087850;28;20800;-68
2022/09/03 04:06:40;;;;;;;5.60;4.47;;;;;;;18.48;100.00;101641.97;2087722;28;20729;-68
2022/09/03 04:07:42;;;;;;;9.60;4.70;;;;;;;18.56;100.00;101632.03;2087565;28;20212;-67
2022/09/03 04:08:45;;;;;;;7.37;4.70;;;;;;;18.60;100.00;101632.69;2087862;28;20694;-67
2022/09/03 04:09:46;;;;;;;4.87;4.37;;;;;;;18.67;100.00;101632.38;2088030;28;20449;-68
2022/09/03 04:10:47;;;;;;;5.17;4.37;;;;;;;18.26;100.00;101561.91;2088077;28;20454;-68
2022/09/03 04:11:49;;;;;;;6.00;4.80;;;;;;;18.24;100.00;101560.31;2088731;28;20239;-67
2022/09/03 04:12:53;;;;;;;5.90;4.50;;;;;;;17.95;100.00;101494.63;2088228;28;20526;-68
2022/09/03 04:13:53;;;;;;;5.70;4.40;;;;;;;18.59;100.00;101588.22;2087730;28;20999;-67
2022/09/03 04:14:54;;;;;;;6.00;4.70;;;;;;;18.76;100.00;101611.97;2087625;28;20820;-68
2022/09/03 04:16:03;;;;;;;9.90;4.60;;;;;;;18.89;100.00;101626.66;2087682;28;20278;-67
2022/09/03 04:17:04;;;;;;;6.67;4.90;;;;;;;18.96;100.00;101629.16;2087506;28;20267;-67
2022/09/03 04:18:05;;;;;;;6.70;4.50;;;;;;;18.03;100.00;101474.22;2087685;28;20434;-68
2022/09/03 04:19:06;;;;;;;10.20;5.00;;;;;;;19.07;100.00;101627.47;2087631;28;20192;-68
2022/09/03 04:20:06;;;;;;;5.13;4.63;;;;;;;19.10;100.00;101622.94;2088228;28;20982;-68
2022/09/03 04:21:10;;;;;;;6.37;4.50;;;;;;;19.14;100.00;101624.34;2087298;28;20560;-68
2022/09/03 04:22:11;;;;;;;6.97;4.87;;;;;;;18.85;100.00;101573.47;2087276;28;20188;-68
2022/09/03 04:23:11;;;;;;;7.80;4.97;;;;;;;19.23;100.00;101624.41;2088440;28;20419;-68
2022/09/03 04:24:12;;;;;;;6.90;4.70;;;;;;;19.24;100.00;101622.38;2088484;28;20181;-68
2022/09/03 04:25:12;;;;;;;10.17;5.67;;;;;;;19.29;100.00;101625.31;2087496;28;20191;-68
2022/09/03 04:26:16;;;;;;;9.60;5.33;;;;;;;19.30;100.00;101628.94;2087965;28;20244;-68
2022/09/03 04:27:16;;;;;;;5.53;4.50;;;;;;;19.36;100.00;101629.88;2086698;28;20282;-67
2022/09/03 04:28:17;;;;;;;7.50;4.83;;;;;;;19.36;100.00;101625.03;2087656;28;20435;-68
2022/09/03 04:29:17;;;;;;;8.50;4.73;;;;;;;19.37;100.00;101623.78;2086839;28;20711;-67
2022/09/03 04:30:18;;;;;;;6.67;5.00;;;;;;;19.31;100.00;101616.44;2087382;28;20176;-68
2022/09/03 04:31:20;;;;;;;6.67;4.87;;;;;;;19.38;100.00;101630.16;2088630;28;20204;-67
2022/09/03 04:33:41;;;;;;;9.10;4.77;;;;;;;19.37;100.00;101637.03;2087639;28;20387;-68
2022/09/03 04:34:41;;;;;;;7.20;5.00;;;;;;;19.39;100.00;101635.31;2087402;28;20781;-68
2022/09/03 04:35:43;;;;;;;7.00;4.90;;;;;;;19.08;100.00;101600.94;2087787;28;20460;-68
2022/09/03 04:36:43;;;;;;;7.27;4.70;;;;;;;19.42;100.00;101634.41;2087545;28;20190;-68
2022/09/03 04:37:44;;;;;;;6.17;4.80;;;;;;;19.42;100.00;101637.22;2087798;28;20434;-68
2022/09/03 04:38:46;;;;;;;8.87;5.80;;;;;;;19.41;100.00;101637.66;2087974;28;20188;-67
2022/09/03 04:39:47;;;;;;;6.37;4.80;;;;;;;19.43;100.00;101641.56;2088182;28;20184;-68
2022/09/03 04:40:53;;;;;;;7.47;5.43;;;;;;;19.47;100.00;101639.41;2087368;28;20946;-68
2022/09/03 04:41:54;;;;;;;5.03;4.53;;;;;;;19.50;100.00;101638.44;2087954;28;20697;-68
2022/09/03 04:43:00;;;;;;;9.63;5.10;;;;;;;19.49;100.00;101639.69;2087670;28;20805;-67
2022/09/03 04:44:01;;;;;;;8.40;5.30;;;;;;;19.47;100.00;101641.41;2087989;28;20589;-67
2022/09/03 04:45:01;;;;;;;9.90;5.23;;;;;;;19.47;100.00;101650.63;2087899;28;20446;-67
2022/09/03 04:46:06;;;;;;;6.70;5.30;;;;;;;19.39;100.00;101629.69;2087729;28;20223;-68
2022/09/03 04:47:07;;;;;;;5.63;5.07;;;;;;;19.51;100.00;101647.66;2087123;28;20192;-68
2022/09/03 04:48:10;;;;;;;8.23;4.83;;;;;;;19.48;100.00;101646.56;2087656;28;20446;-68
2022/09/03 04:49:11;;;;;;;6.77;5.23;;;;;;;19.47;100.00;101649.84;2087731;28;20209;-67
2022/09/03 04:50:12;;;;;;;7.47;5.23;;;;;;;19.46;100.00;101649.09;2088177;28;20501;-67
2022/09/03 04:51:15;;;;;;;7.03;5.27;;;;;;;19.09;100.00;101588.44;2087968;28;20447;-67
2022/09/03 04:52:15;;;;;;;7.07;5.40;;;;;;;19.46;100.00;101648.28;2087504;28;20238;-68
2022/09/03 04:53:15;;;;;;;8.13;5.33;;;;;;;19.41;100.00;101649.72;2087901;28;20438;-68
2022/09/03 04:54:16;;;;;;;7.43;5.47;;;;;;;19.46;100.00;101653.91;2088592;28;20227;-68
2022/09/03 04:55:18;;;;;;;7.47;5.27;;;;;;;19.51;100.00;101648.47;2086606;28;20270;-68
2022/09/03 04:56:26;;;;;;;7.63;5.50;;;;;;;19.49;100.00;101645.31;2086705;28;20190;-67
2022/09/03 04:57:33;;;;;;;7.17;5.10;;;;;;;19.47;100.00;101647.81;2087651;28;20430;-68
2022/09/03 04:58:34;;;;;;;7.97;5.50;;;;;;;19.44;100.00;101645.94;2088141;28;20451;-68
2022/09/03 04:59:34;;;;;;;7.13;5.70;;;;;;;19.46;100.00;101651.09;2088166;28;20441;-68
2022/09/03 05:00:36;;;;;;;6.10;4.97;;;;;;;19.45;100.00;101650.31;2087724;28;20688;-67
2022/09/03 05:01:38;;;;;;;10.23;5.47;;;;;;;19.45;100.00;101658.75;2087401;28;20184;-68
2022/09/03 05:02:39;;;;;;;5.93;5.40;;;;;;;19.51;100.00;101651.28;2087280;28;20434;-68
2022/09/03 05:03:39;;;;;;;8.17;5.60;;;;;;;19.53;100.00;101657.19;2087819;28;20472;-68
2022/09/03 05:04:41;;;;;;;10.10;5.60;;;;;;;18.96;100.00;101556.13;2087621;28;20604;-68
2022/09/03 05:05:41;;;;;;;9.13;5.00;;;;;;;19.63;100.00;101649.53;2087430;28;20192;-68
2022/09/03 05:06:42;;;;;;;9.07;5.40;;;;;;;19.65;100.00;101653.44;2086314;28;20481;-68
2022/09/03 05:07:42;;;;;;;8.70;5.60;;;;;;;19.67;100.00;101652.97;2086667;28;20252;-68
2022/09/03 05:08:47;;;;;;;10.27;5.40;;;;;;;19.09;100.00;101559.59;2087871;28;20643;-68
2022/09/03 05:09:48;;;;;;;7.97;5.10;;;;;;;19.71;100.00;101650.78;2086832;28;20188;-68
2022/09/03 05:10:49;;;;;;;6.77;4.93;;;;;;;19.17;100.00;101577.69;2087846;28;20441;-67